Sepulveda, California
Current Conditions -  °F | °C
As of 4:53 PM on Saturday 25 Oct 2014 (Local Time) from KBUR Reporting Station
Clear Clear  
Wind Chill: 78°   Ceiling: Unl
Heat Index: 78°   Visibility: 10mi
Dew Point: 43°   Wind: 8mph
Humidity: 29%   Direction: 180°S
Pressure: 29.99"   Gusts: NA
Location:  34.1618°N, 118.281°W
Report Text: KBUR 252353Z 18007KT 10SM CLR 26/06 A2999 RMK AO2 SLP144 T02560061 10278 20244 56010
Loading
Personal Weather Stations






























Interactive Weather Map New forecast layout! Learn more

10-Day Weather Forecast

Advertisements
Track Severe Weather on mobile